createdAt,value
2022-08-25T00:00:12.629Z,12.10
2022-08-25T00:02:40.313Z,10.87
2022-08-25T00:05:08.461Z,10.83
2022-08-25T00:07:37.350Z,10.67
2022-08-25T00:10:04.808Z,10.73
2022-08-25T00:12:32.170Z,9.30
2022-08-25T00:14:59.716Z,9.27
2022-08-25T00:17:28.945Z,9.03
2022-08-25T00:19:56.523Z,9.23
2022-08-25T00:22:23.884Z,8.57
2022-08-25T00:24:51.243Z,8.63
2022-08-25T00:27:18.637Z,8.67
2022-08-25T00:29:46.433Z,8.97
2022-08-25T00:32:13.834Z,8.87
2022-08-25T00:34:42.581Z,8.60
2022-08-25T00:37:10.230Z,8.87
2022-08-25T00:39:38.365Z,8.53
2022-08-25T00:42:06.213Z,8.50
2022-08-25T00:44:39.276Z,8.33
2022-08-25T00:47:07.281Z,9.30
2022-08-25T00:49:36.813Z,8.97
2022-08-25T00:52:07.271Z,8.63
2022-08-25T00:54:38.971Z,8.67
2022-08-25T00:57:07.362Z,9.17
2022-08-25T00:59:35.167Z,8.73
2022-08-25T01:02:02.739Z,10.23
2022-08-25T01:04:30.397Z,8.90
2022-08-25T01:06:59.028Z,9.53
2022-08-25T01:09:29.373Z,9.90
2022-08-25T01:11:56.787Z,10.13
2022-08-25T01:14:25.311Z,10.77
2022-08-25T01:16:54.139Z,9.60
2022-08-25T01:19:22.163Z,10.17
2022-08-25T01:21:51.599Z,10.63
2022-08-25T01:24:24.372Z,9.90
2022-08-25T01:26:51.753Z,10.53
2022-08-25T01:29:21.906Z,9.80
2022-08-25T01:31:49.427Z,9.47
2022-08-25T01:34:17.501Z,9.77
2022-08-25T01:36:45.295Z,10.47
2022-08-25T01:39:14.193Z,10.37
2022-08-25T01:41:45.836Z,10.17
2022-08-25T01:44:16.547Z,9.13
2022-08-25T01:46:44.267Z,9.53
2022-08-25T01:49:11.643Z,8.93
2022-08-25T01:51:43.212Z,9.30
2022-08-25T01:54:10.709Z,8.60
2022-08-25T01:56:39.619Z,9.03
2022-08-25T01:59:07.149Z,8.90
2022-08-25T02:01:34.653Z,8.47
2022-08-25T02:04:02.228Z,8.47
2022-08-25T02:06:33.108Z,9.07
2022-08-25T02:09:02.522Z,8.17
2022-08-25T02:11:29.921Z,8.43
2022-08-25T02:13:59.078Z,8.73
2022-08-25T02:16:28.711Z,10.17
2022-08-25T02:18:56.765Z,10.20
2022-08-25T02:21:24.156Z,11.37
2022-08-25T02:23:51.622Z,11.03
2022-08-25T02:26:19.901Z,11.23
2022-08-25T02:28:47.398Z,9.93
2022-08-25T02:31:17.515Z,10.57
2022-08-25T02:33:45.237Z,10.60
2022-08-25T02:36:12.831Z,11.40
2022-08-25T02:38:40.757Z,10.90
2022-08-25T02:41:11.840Z,10.53
2022-08-25T02:43:39.393Z,10.60
2022-08-25T02:46:06.862Z,9.97
2022-08-25T02:48:36.716Z,10.73
2022-08-25T02:51:05.791Z,9.50
2022-08-25T02:53:33.733Z,10.13
2022-08-25T02:56:01.228Z,9.93
2022-08-25T02:58:29.046Z,9.73
2022-08-25T03:00:56.921Z,8.83
2022-08-25T03:03:24.729Z,9.20
2022-08-25T03:05:53.847Z,8.90
2022-08-25T03:08:21.220Z,9.30
2022-08-25T03:10:49.065Z,8.80
2022-08-25T03:13:19.510Z,8.70
2022-08-25T03:15:47.142Z,8.53
2022-08-25T03:18:16.760Z,8.10
2022-08-25T03:20:45.719Z,7.53
2022-08-25T03:23:15.085Z,7.93
2022-08-25T03:25:56.490Z,7.43
2022-08-25T03:28:30.057Z,8.73
2022-08-25T03:31:00.296Z,8.00
2022-08-25T03:33:28.117Z,10.43
2022-08-25T03:35:55.875Z,12.20
2022-08-25T03:38:25.283Z,11.10
2022-08-25T03:40:53.539Z,10.63
2022-08-25T03:43:21.359Z,10.90
2022-08-25T03:45:49.156Z,10.07
2022-08-25T03:48:16.967Z,8.73
2022-08-25T03:50:45.167Z,8.20
2022-08-25T03:53:19.046Z,7.77
2022-08-25T03:55:48.134Z,8.20
2022-08-25T03:58:16.012Z,7.80
2022-08-25T04:00:43.405Z,8.77
2022-08-25T04:03:11.163Z,8.20
2022-08-25T04:05:38.536Z,7.43
2022-08-25T04:08:08.006Z,7.33
2022-08-25T04:10:37.248Z,7.77
2022-08-25T04:13:07.567Z,7.30
2022-08-25T04:15:36.908Z,7.43
2022-08-25T04:18:04.828Z,6.33
2022-08-25T04:20:32.324Z,6.37
2022-08-25T04:23:01.244Z,6.40
2022-08-25T04:25:28.626Z,7.33
2022-08-25T04:27:56.048Z,7.03
2022-08-25T04:30:24.772Z,7.90
2022-08-25T04:32:52.157Z,7.57
2022-08-25T04:35:19.588Z,7.73
2022-08-25T04:37:48.749Z,7.33
2022-08-25T04:40:16.167Z,7.20
2022-08-25T04:42:44.884Z,7.90
2022-08-25T04:45:15.609Z,8.50
2022-08-25T04:47:44.328Z,8.83
2022-08-25T04:50:11.720Z,7.77
2022-08-25T04:52:39.141Z,8.50
2022-08-25T04:55:07.397Z,7.23
2022-08-25T04:57:34.819Z,8.33
2022-08-25T05:00:02.336Z,7.90
2022-08-25T05:02:29.733Z,8.00
2022-08-25T05:04:58.449Z,8.50
2022-08-25T05:07:25.928Z,8.87
2022-08-25T05:09:53.295Z,8.67
2022-08-25T05:12:21.195Z,8.20
2022-08-25T05:14:48.561Z,8.87
2022-08-25T05:17:15.965Z,8.47
2022-08-25T05:19:43.482Z,8.03
2022-08-25T05:22:12.305Z,8.73
2022-08-25T05:24:39.680Z,9.17
2022-08-25T05:27:07.055Z,9.53
2022-08-25T05:29:34.464Z,9.40
2022-08-25T05:32:01.969Z,9.47
2022-08-25T05:34:30.140Z,9.07
2022-08-25T05:37:00.045Z,9.20
2022-08-25T05:39:32.319Z,9.20
2022-08-25T05:41:59.782Z,9.40
2022-08-25T05:44:27.158Z,9.67
2022-08-25T05:46:54.688Z,10.73
2022-08-25T05:49:22.056Z,10.47
2022-08-25T05:51:49.424Z,10.27
2022-08-25T05:54:16.895Z,10.90
2022-08-25T05:56:46.341Z,10.40
2022-08-25T05:59:13.753Z,10.47
2022-08-25T06:01:59.037Z,10.77
2022-08-25T06:04:26.611Z,11.00
2022-08-25T06:06:54.934Z,11.07
2022-08-25T06:09:22.442Z,12.63
2022-08-25T06:11:54.671Z,13.87
2022-08-25T06:14:22.599Z,12.13
2022-08-25T06:16:51.512Z,13.97
2022-08-25T06:19:19.117Z,12.40
2022-08-25T06:21:46.748Z,12.47
2022-08-25T06:24:15.688Z,12.63
2022-08-25T06:26:43.959Z,12.90
2022-08-25T06:29:13.900Z,13.00
2022-08-25T06:31:42.485Z,12.67
2022-08-25T06:34:10.511Z,13.03
2022-08-25T06:36:37.895Z,12.77
2022-08-25T06:39:05.285Z,13.00
2022-08-25T06:41:36.942Z,12.30
2022-08-25T06:44:05.457Z,13.50
2022-08-25T06:46:36.426Z,13.93
2022-08-25T06:49:04.844Z,12.77
2022-08-25T06:51:32.306Z,13.83
2022-08-25T06:53:59.668Z,12.87
2022-08-25T06:56:27.046Z,13.87
2022-08-25T06:58:55.650Z,13.60
2022-08-25T07:01:26.248Z,15.13
2022-08-25T07:03:57.767Z,14.80
2022-08-25T07:06:25.734Z,14.50
2022-08-25T07:08:53.109Z,14.87
2022-08-25T07:11:20.933Z,16.53
2022-08-25T07:13:48.866Z,16.47
2022-08-25T07:16:16.719Z,16.40
2022-08-25T07:18:44.602Z,16.63
2022-08-25T07:21:14.034Z,16.53
2022-08-25T07:23:42.133Z,16.63
2022-08-25T07:26:33.597Z,16.40
2022-08-25T07:28:59.697Z,16.23
2022-08-25T07:31:29.654Z,15.53
2022-08-25T07:34:15.316Z,16.10
2022-08-25T07:36:45.239Z,15.07
2022-08-25T07:39:13.037Z,14.43
2022-08-25T07:41:41.444Z,15.07
2022-08-25T07:44:09.278Z,14.90
2022-08-25T07:46:36.786Z,14.40
2022-08-25T07:49:05.325Z,14.90
2022-08-25T07:52:04.219Z,15.17
2022-08-25T07:54:34.238Z,14.70
2022-08-25T07:57:02.301Z,12.97
2022-08-25T07:59:29.734Z,14.47
2022-08-25T08:01:58.163Z,13.00
2022-08-25T08:04:25.600Z,13.27
2022-08-25T08:06:54.311Z,13.70
2022-08-25T08:09:21.779Z,13.50
2022-08-25T08:11:53.758Z,13.97
2022-08-25T08:14:21.875Z,13.07
2022-08-25T08:16:49.541Z,12.93
2022-08-25T08:19:17.215Z,12.47
2022-08-25T08:21:45.950Z,12.40
2022-08-25T08:24:40.871Z,12.73
2022-08-25T08:27:02.727Z,11.43
2022-08-25T08:29:30.103Z,11.80
2022-08-25T08:31:59.320Z,11.63
2022-08-25T08:34:26.929Z,11.23
2022-08-25T08:36:54.983Z,11.87
2022-08-25T08:39:23.949Z,12.07
2022-08-25T08:42:16.772Z,9.50
2022-08-25T08:44:57.063Z,10.13
2022-08-25T08:47:29.610Z,9.37
2022-08-25T08:50:01.701Z,9.70
2022-08-25T08:52:37.107Z,10.00
2022-08-25T08:55:08.990Z,9.40
2022-08-25T08:57:42.273Z,8.73
2022-08-25T09:00:11.044Z,9.10
2022-08-25T09:02:51.565Z,9.23
2022-08-25T09:05:20.608Z,9.00
2022-08-25T09:07:49.578Z,9.00
2022-08-25T09:10:25.196Z,9.13
2022-08-25T09:12:58.754Z,8.60
2022-08-25T09:15:50.884Z,8.33
2022-08-25T09:18:27.203Z,9.70
2022-08-25T09:21:01.604Z,9.73
2022-08-25T09:23:34.567Z,8.87
2022-08-25T09:26:11.851Z,9.47
2022-08-25T09:28:41.754Z,8.80
2022-08-25T09:31:13.539Z,8.70
2022-08-25T09:33:41.042Z,8.77
2022-08-25T09:36:09.212Z,7.70
2022-08-25T09:38:36.785Z,8.43
2022-08-25T09:41:05.697Z,8.03
2022-08-25T09:43:34.245Z,8.00
2022-08-25T09:46:03.308Z,7.93
2022-08-25T09:48:39.767Z,7.90
2022-08-25T09:51:14.009Z,8.33
2022-08-25T09:53:48.149Z,8.37
2022-08-25T09:56:19.939Z,8.33
2022-08-25T09:58:47.333Z,7.97
2022-08-25T10:01:16.302Z,7.93
2022-08-25T10:04:04.711Z,7.50
2022-08-25T10:06:37.620Z,7.37
2022-08-25T10:09:06.563Z,7.37
2022-08-25T10:11:43.546Z,8.13
2022-08-25T10:14:18.692Z,7.90
2022-08-25T10:16:47.372Z,7.33
2022-08-25T10:19:24.547Z,7.57
2022-08-25T10:22:03.193Z,7.67
2022-08-25T10:24:30.852Z,6.73
2022-08-25T10:27:03.331Z,7.43
2022-08-25T10:29:34.582Z,6.67
2022-08-25T10:32:09.021Z,6.87
2022-08-25T10:34:44.353Z,7.03
2022-08-25T10:37:15.511Z,7.23
2022-08-25T10:39:44.166Z,6.93
2022-08-25T10:42:25.825Z,7.30
2022-08-25T10:45:21.978Z,7.13
2022-08-25T10:47:54.214Z,7.03
2022-08-25T10:50:24.480Z,6.67
2022-08-25T10:53:01.486Z,7.00
2022-08-25T10:55:31.520Z,7.50
2022-08-25T10:58:04.696Z,7.53
2022-08-25T11:00:40.242Z,6.70
2022-08-25T11:03:25.516Z,7.33
2022-08-25T11:05:55.612Z,7.17
2022-08-25T11:08:29.877Z,6.63
2022-08-25T11:10:58.779Z,6.60
2022-08-25T11:13:32.668Z,6.83
2022-08-25T11:16:18.757Z,6.67
2022-08-25T11:18:48.676Z,6.63
2022-08-25T11:21:22.128Z,6.30
2022-08-25T11:23:53.589Z,7.63
2022-08-25T11:26:31.892Z,7.20
2022-08-25T11:29:05.600Z,6.60
2022-08-25T11:31:40.426Z,6.40
2022-08-25T11:34:10.563Z,6.13
2022-08-25T11:36:40.552Z,6.33
2022-08-25T11:39:16.296Z,7.07
2022-08-25T11:41:50.941Z,6.77
2022-08-25T11:44:32.077Z,6.13
2022-08-25T11:47:21.397Z,6.10
2022-08-25T11:49:53.637Z,6.30
2022-08-25T11:52:40.111Z,5.83
2022-08-25T11:55:11.623Z,6.87
2022-08-25T11:57:39.691Z,6.40
2022-08-25T12:00:12.609Z,5.57
2022-08-25T12:02:42.560Z,6.03
2022-08-25T12:05:11.766Z,5.53
2022-08-25T12:08:11.184Z,5.93
2022-08-25T12:10:54.216Z,5.97
2022-08-25T12:13:26.337Z,5.50
2022-08-25T12:15:58.147Z,5.60
2022-08-25T12:18:45.976Z,5.43
2022-08-25T12:21:16.013Z,5.73
2022-08-25T12:23:45.333Z,6.47
2022-08-25T12:26:21.551Z,5.90
2022-08-25T12:28:53.877Z,6.07
2022-08-25T12:31:36.240Z,5.47
2022-08-25T12:34:15.711Z,5.90
2022-08-25T12:36:56.226Z,5.33
2022-08-25T12:39:29.180Z,5.30
2022-08-25T12:44:39.494Z,5.87
2022-08-25T12:47:11.575Z,6.17
2022-08-25T12:49:40.797Z,5.40
2022-08-25T12:52:11.394Z,5.47
2022-08-25T12:54:43.482Z,5.13
2022-08-25T12:57:25.064Z,5.93
2022-08-25T12:59:58.167Z,5.17
2022-08-25T13:02:52.170Z,5.40
2022-08-25T13:05:38.172Z,5.07
2022-08-25T13:08:20.799Z,5.00
2022-08-25T13:10:50.747Z,5.20
2022-08-25T13:13:23.911Z,5.17
2022-08-25T13:15:59.645Z,5.43
2022-08-25T13:18:28.791Z,5.53
2022-08-25T13:21:02.785Z,5.17
2022-08-25T13:23:32.256Z,5.57
2022-08-25T13:26:00.025Z,5.33
2022-08-25T13:28:29.293Z,5.70
2022-08-25T13:30:57.529Z,5.80
2022-08-25T13:33:25.889Z,5.17
2022-08-25T13:36:14.972Z,5.13
2022-08-25T13:38:45.718Z,5.13
2022-08-25T13:41:19.034Z,5.03
2022-08-25T13:43:46.516Z,4.77
2022-08-25T13:46:14.092Z,5.13
2022-08-25T13:48:49.320Z,5.17
2022-08-25T13:51:21.494Z,5.20
2022-08-25T13:53:51.483Z,5.27
2022-08-25T13:56:27.336Z,5.17
2022-08-25T13:58:58.440Z,5.60
2022-08-25T14:01:47.507Z,4.80
2022-08-25T14:04:22.254Z,5.93
2022-08-25T14:06:49.813Z,5.13
2022-08-25T14:09:28.199Z,5.00
2022-08-25T14:11:56.950Z,5.10
2022-08-25T14:14:31.924Z,5.10
2022-08-25T14:17:12.051Z,5.13
2022-08-25T14:19:49.232Z,4.43
2022-08-25T14:22:16.715Z,5.13
2022-08-25T14:24:45.481Z,4.53
2022-08-25T14:27:12.856Z,5.20
2022-08-25T14:29:41.247Z,5.57
2022-08-25T14:32:10.143Z,6.20
2022-08-25T14:34:39.550Z,5.57
2022-08-25T14:37:10.691Z,5.03
2022-08-25T14:39:38.322Z,4.90
2022-08-25T14:42:08.439Z,5.70
2022-08-25T14:44:35.846Z,4.70
2022-08-25T14:47:03.633Z,5.00
2022-08-25T14:49:35.573Z,4.97
2022-08-25T14:52:07.515Z,5.03
2022-08-25T14:54:37.610Z,5.30
2022-08-25T14:57:08.410Z,5.07
2022-08-25T14:59:36.333Z,5.47
2022-08-25T15:02:13.000Z,5.47
2022-08-25T15:04:42.467Z,5.13
2022-08-25T15:07:30.412Z,4.90
2022-08-25T15:09:57.791Z,5.27
2022-08-25T15:12:46.532Z,4.73
2022-08-25T15:15:15.051Z,4.63
2022-08-25T15:17:44.667Z,4.80
2022-08-25T15:20:12.293Z,5.43
2022-08-25T15:22:39.693Z,5.23
2022-08-25T15:25:09.649Z,5.60
2022-08-25T15:27:38.466Z,5.00
2022-08-25T15:30:06.701Z,5.63
2022-08-25T15:32:34.333Z,4.50
2022-08-25T15:35:01.828Z,5.63
2022-08-25T15:37:29.245Z,4.67
2022-08-25T15:39:57.128Z,4.97
2022-08-25T15:42:25.333Z,5.33
2022-08-25T15:44:54.524Z,5.00
2022-08-25T15:47:24.034Z,5.20
2022-08-25T15:49:51.463Z,4.83
2022-08-25T15:52:18.824Z,5.77
2022-08-25T15:54:46.564Z,5.03
2022-08-25T15:57:24.071Z,5.80
2022-08-25T15:59:53.267Z,5.00
2022-08-25T16:02:22.535Z,5.27
2022-08-25T16:04:51.405Z,5.03
2022-08-25T16:07:18.796Z,5.23
2022-08-25T16:09:46.751Z,5.30
2022-08-25T16:12:15.248Z,5.40
2022-08-25T16:14:42.645Z,4.73
2022-08-25T16:17:10.302Z,5.00
2022-08-25T16:19:39.311Z,4.50
2022-08-25T16:22:08.922Z,4.90
2022-08-25T16:24:39.880Z,5.10
2022-08-25T16:27:11.021Z,5.00
2022-08-25T16:29:40.589Z,5.83
2022-08-25T16:32:09.954Z,5.10
2022-08-25T16:34:39.446Z,5.40
2022-08-25T16:37:07.092Z,4.97
2022-08-25T16:39:34.473Z,4.87
2022-08-25T16:42:01.839Z,5.60
2022-08-25T16:44:29.352Z,5.80
2022-08-25T16:46:57.578Z,5.47
2022-08-25T16:49:25.460Z,5.77
2022-08-25T16:51:57.145Z,6.13
2022-08-25T16:54:42.919Z,5.83
2022-08-25T16:57:10.365Z,6.50
2022-08-25T16:59:37.823Z,5.97
2022-08-25T17:02:06.439Z,6.07
2022-08-25T17:04:33.923Z,6.20
2022-08-25T17:07:02.634Z,6.77
2022-08-25T17:09:30.669Z,5.83
2022-08-25T17:11:58.242Z,6.13
2022-08-25T17:14:26.290Z,6.33
2022-08-25T17:16:55.055Z,6.83
2022-08-25T17:19:23.585Z,5.93
2022-08-25T17:21:51.360Z,6.57
2022-08-25T17:24:20.596Z,7.07
2022-08-25T17:26:49.840Z,6.40
2022-08-25T17:29:17.420Z,6.70
2022-08-25T17:31:46.229Z,6.87
2022-08-25T17:34:16.461Z,6.80
2022-08-25T17:36:45.365Z,6.13
2022-08-25T17:39:14.204Z,6.83
2022-08-25T17:41:43.904Z,7.47
2022-08-25T17:44:11.550Z,6.77
2022-08-25T17:46:42.890Z,6.77
2022-08-25T17:49:14.923Z,7.00
2022-08-25T17:51:43.240Z,7.00
2022-08-25T17:54:10.904Z,6.67
2022-08-25T17:56:38.600Z,6.87
2022-08-25T17:59:07.948Z,6.50
2022-08-25T18:01:40.167Z,6.30
2022-08-25T18:04:07.796Z,6.70
2022-08-25T18:06:44.572Z,6.93
2022-08-25T18:09:12.465Z,6.83
2022-08-25T18:11:39.835Z,6.60
2022-08-25T18:14:10.788Z,6.97
2022-08-25T18:16:38.769Z,8.07
2022-08-25T18:19:06.449Z,6.90
2022-08-25T18:21:37.225Z,7.37
2022-08-25T18:24:05.034Z,6.77
2022-08-25T18:26:32.740Z,6.70
2022-08-25T18:29:00.116Z,7.10
2022-08-25T18:31:29.226Z,6.97
2022-08-25T18:33:56.739Z,7.13
2022-08-25T18:36:24.820Z,6.83
2022-08-25T18:39:10.556Z,7.63
2022-08-25T18:41:42.734Z,7.10
2022-08-25T18:44:12.491Z,7.30
2022-08-25T18:46:45.535Z,7.50
2022-08-25T18:49:15.598Z,7.23
2022-08-25T18:51:44.583Z,7.20
2022-08-25T18:54:23.471Z,7.33
2022-08-25T18:56:51.596Z,7.53
2022-08-25T18:59:20.081Z,7.30
2022-08-25T19:01:52.790Z,7.70
2022-08-25T19:04:20.335Z,7.27
2022-08-25T19:06:55.712Z,7.60
2022-08-25T19:09:23.167Z,8.50
2022-08-25T19:11:52.604Z,8.13
2022-08-25T19:14:22.267Z,8.00
2022-08-25T19:16:51.636Z,8.20
2022-08-25T19:19:21.664Z,8.40
2022-08-25T19:21:49.038Z,7.33
2022-08-25T19:24:19.218Z,7.80
2022-08-25T19:26:46.804Z,7.43
2022-08-25T19:29:15.601Z,8.17
2022-08-25T19:31:45.174Z,7.43
2022-08-25T19:34:15.201Z,8.37
2022-08-25T19:36:45.316Z,7.70
2022-08-25T19:39:13.972Z,8.07
2022-08-25T19:41:45.071Z,8.33
2022-08-25T19:44:13.107Z,7.90
2022-08-25T19:46:41.652Z,8.10
2022-08-25T19:49:12.227Z,8.03
2022-08-25T19:51:40.901Z,8.17
2022-08-25T19:54:13.547Z,8.07
2022-08-25T19:56:53.618Z,7.73
2022-08-25T19:59:22.776Z,7.53
2022-08-25T20:01:50.475Z,8.23
2022-08-25T20:04:17.925Z,7.60
2022-08-25T20:06:48.399Z,8.57
2022-08-25T20:09:20.911Z,8.40
2022-08-25T20:12:06.492Z,8.90
2022-08-25T20:14:34.949Z,9.03
2022-08-25T20:17:02.442Z,8.63
2022-08-25T20:19:31.054Z,8.47
2022-08-25T20:21:58.894Z,8.87
2022-08-25T20:24:45.093Z,8.57
2022-08-25T20:27:12.768Z,9.20
2022-08-25T20:29:40.237Z,10.27
2022-08-25T20:32:12.325Z,9.90
2022-08-25T20:34:41.170Z,9.83
2022-08-25T20:37:08.903Z,9.63
2022-08-25T20:39:37.993Z,9.93
2022-08-25T20:42:05.796Z,9.03
2022-08-25T20:44:35.182Z,9.17
2022-08-25T20:47:06.047Z,9.43
2022-08-25T20:49:37.715Z,8.93
2022-08-25T20:52:06.093Z,8.67
2022-08-25T20:54:34.257Z,9.40
2022-08-25T20:57:03.012Z,9.40
2022-08-25T20:59:30.428Z,9.57
2022-08-25T21:01:58.462Z,9.40
2022-08-25T21:04:28.156Z,8.77
2022-08-25T21:06:55.843Z,9.37
2022-08-25T21:09:24.692Z,9.73
2022-08-25T21:11:53.896Z,9.50
2022-08-25T21:14:22.870Z,9.70
2022-08-25T21:16:51.071Z,9.20
2022-08-25T21:19:33.960Z,9.60
2022-08-25T21:22:01.887Z,9.03
2022-08-25T21:24:29.358Z,9.70
2022-08-25T21:26:58.061Z,9.27
2022-08-25T21:29:28.604Z,8.90
2022-08-25T21:31:56.259Z,9.53
2022-08-25T21:34:23.741Z,10.13
2022-08-25T21:36:51.369Z,9.80
2022-08-25T21:39:20.136Z,10.43
2022-08-25T21:41:47.770Z,10.03
2022-08-25T21:44:15.153Z,10.17
2022-08-25T21:46:54.419Z,9.00
2022-08-25T21:49:22.556Z,9.30
2022-08-25T21:51:59.370Z,10.17
2022-08-25T21:54:28.815Z,8.73
2022-08-25T21:56:58.372Z,9.80
2022-08-25T21:59:27.281Z,10.20
2022-08-25T22:01:57.258Z,9.97
2022-08-25T22:04:24.778Z,9.80
2022-08-25T22:06:52.163Z,9.47
2022-08-25T22:09:19.648Z,9.57
2022-08-25T22:11:47.263Z,9.83
2022-08-25T22:14:14.997Z,8.57
2022-08-25T22:16:43.262Z,10.07
2022-08-25T22:19:13.112Z,9.73
2022-08-25T22:21:41.820Z,8.90
2022-08-25T22:24:09.405Z,9.80
2022-08-25T22:26:37.477Z,9.63
2022-08-25T22:29:05.640Z,9.93
2022-08-25T22:31:34.158Z,9.73
2022-08-25T22:34:02.714Z,9.70
2022-08-25T22:36:32.927Z,10.13
2022-08-25T22:39:00.784Z,10.53
2022-08-25T22:41:29.453Z,10.00
2022-08-25T22:43:57.686Z,10.27
2022-08-25T22:46:25.909Z,9.90
2022-08-25T22:48:55.689Z,10.53
2022-08-25T22:51:24.364Z,9.87
2022-08-25T22:53:53.797Z,10.30
2022-08-25T22:56:22.626Z,9.53
2022-08-25T22:58:51.947Z,9.97
2022-08-25T23:01:20.332Z,10.37
2022-08-25T23:03:47.957Z,9.27
2022-08-25T23:06:19.635Z,9.30
2022-08-25T23:08:48.612Z,9.27
2022-08-25T23:11:18.105Z,9.50
2022-08-25T23:13:46.417Z,10.17
2022-08-25T23:16:14.539Z,9.33
2022-08-25T23:18:43.921Z,8.93
2022-08-25T23:21:29.820Z,9.07
2022-08-25T23:24:05.896Z,8.70
2022-08-25T23:26:34.616Z,9.07
2022-08-25T23:29:03.245Z,9.60
2022-08-25T23:31:44.875Z,9.83
2022-08-25T23:34:12.389Z,9.17
2022-08-25T23:36:40.702Z,9.60
2022-08-25T23:39:09.742Z,9.70
2022-08-25T23:41:38.452Z,10.00
2022-08-25T23:44:09.323Z,9.13
2022-08-25T23:46:39.683Z,9.50
2022-08-25T23:49:08.428Z,10.63
2022-08-25T23:51:38.228Z,10.63
2022-08-25T23:54:07.036Z,9.33
2022-08-25T23:56:42.454Z,8.57
2022-08-25T23:59:13.102Z,9.37
